Portada
METAR-TAF:

METAR-TAF

Aeropuertos :

Aeropuerto de Menorca

Menorca, España

latitud: 39-52N, longitud: 004-14E, altitud: 87 m

Observación

El informe se hizo hace 20 minutos, a las 20:00 UTC
Viento 6 kt del norte-noreste
Temperatura 12°C
Humedad 88%
Presión 1017 hPa
Visibilidad 10 km o más
Escasas nubes a una altura de 1900 ft

METAR: LEMH 292000Z 02006KT 9999 FEW019 12/10 Q1017

Hora: 21:20 (20:20 UTC)

Pronóstico

El informe se hizo hace 6 horas y 20 minutos, a las 14:00 UTC
Pronóstico válido del 29 a las 15 UTC al 30 a las 15 UTC
Viento 14 kt del norte
Visibilidad 10 km o más
Escasas nubes a una altura de 2000 ft
Evolucionando progresivamente
del 29 a las 15 UTC al 29 a las 17 UTC
Viento 4 kt del norte-noreste

TAF: LEMH 291400Z 2915/3015 35014KT 9999 FEW020 TX18/3012Z TN11/3006Z BECMG 2915/2917 03004KT

Observaciones y pronósticos meteorológicos de más de 4000 aeropuertos (mensajes METAR y TAF).

Los puntos amarillos y rojos representan las estaciones disponibles.

Ponga el ratón en el punto deseado para ver el nombre de la estación.

Haga clic para ver las observaciones y los pronósticos meteorológicos.

Para cambiar el mapa : haga clic en los botones verdes con una cruz de color negro para hacer un zoom, en el botón verde con un guión para alejar o en las flechas verdes para mapas adyacentes.


METAR-TAF: